sensor_id;sensor_type;location;lat;lon;timestamp;P1;durP1;ratioP1;P2;durP2;ratioP2
20397;SDS011;10358;49.590;11.030;2022-12-07T00:02:01;10.77;;;6.93;;
20397;SDS011;10358;49.590;11.030;2022-12-07T00:04:26;11.47;;;7.47;;
20397;SDS011;10358;49.590;11.030;2022-12-07T00:06:52;11.30;;;7.63;;
20397;SDS011;10358;49.590;11.030;2022-12-07T00:09:18;12.03;;;7.83;;
20397;SDS011;10358;49.590;11.030;2022-12-07T00:11:44;11.23;;;7.90;;
20397;SDS011;10358;49.590;11.030;2022-12-07T00:14:13;10.93;;;7.83;;
20397;SDS011;10358;49.590;11.030;2022-12-07T00:16:40;14.00;;;7.90;;
20397;SDS011;10358;49.590;11.030;2022-12-07T00:19:06;12.43;;;8.13;;
20397;SDS011;10358;49.590;11.030;2022-12-07T00:21:32;12.57;;;8.10;;
20397;SDS011;10358;49.590;11.030;2022-12-07T00:23:59;11.73;;;8.03;;
20397;SDS011;10358;49.590;11.030;2022-12-07T00:26:26;11.80;;;8.10;;
20397;SDS011;10358;49.590;11.030;2022-12-07T00:28:58;12.53;;;8.07;;
20397;SDS011;10358;49.590;11.030;2022-12-07T00:31:27;13.33;;;8.37;;
20397;SDS011;10358;49.590;11.030;2022-12-07T00:33:54;12.37;;;8.10;;
20397;SDS011;10358;49.590;11.030;2022-12-07T00:36:21;12.60;;;8.60;;
20397;SDS011;10358;49.590;11.030;2022-12-07T00:38:47;12.57;;;8.10;;
20397;SDS011;10358;49.590;11.030;2022-12-07T00:41:14;13.33;;;8.30;;
20397;SDS011;10358;49.590;11.030;2022-12-07T00:43:42;13.03;;;9.07;;
20397;SDS011;10358;49.590;11.030;2022-12-07T00:46:08;14.30;;;8.70;;
20397;SDS011;10358;49.590;11.030;2022-12-07T00:48:34;12.93;;;8.10;;
20397;SDS011;10358;49.590;11.030;2022-12-07T00:51:00;12.53;;;7.83;;
20397;SDS011;10358;49.590;11.030;2022-12-07T00:53:26;12.63;;;8.53;;
20397;SDS011;10358;49.590;11.030;2022-12-07T00:55:52;12.53;;;8.23;;
20397;SDS011;10358;49.590;11.030;2022-12-07T00:58:18;11.77;;;7.93;;
20397;SDS011;10358;49.590;11.030;2022-12-07T01:00:44;14.30;;;8.80;;
20397;SDS011;10358;49.590;11.030;2022-12-07T01:03:11;13.60;;;8.30;;
20397;SDS011;10358;49.590;11.030;2022-12-07T01:05:38;12.47;;;8.50;;
20397;SDS011;10358;49.590;11.030;2022-12-07T01:08:04;14.20;;;8.67;;
20397;SDS011;10358;49.590;11.030;2022-12-07T01:10:30;12.53;;;8.37;;
20397;SDS011;10358;49.590;11.030;2022-12-07T01:12:56;13.63;;;8.50;;
20397;SDS011;10358;49.590;11.030;2022-12-07T01:15:22;14.40;;;8.63;;
20397;SDS011;10358;49.590;11.030;2022-12-07T01:17:48;13.90;;;8.53;;
20397;SDS011;10358;49.590;11.030;2022-12-07T01:20:14;13.67;;;8.70;;
20397;SDS011;10358;49.590;11.030;2022-12-07T01:22:41;13.67;;;8.50;;
20397;SDS011;10358;49.590;11.030;2022-12-07T01:25:08;13.40;;;8.50;;
20397;SDS011;10358;49.590;11.030;2022-12-07T01:27:35;13.47;;;8.43;;
20397;SDS011;10358;49.590;11.030;2022-12-07T01:30:02;11.27;;;7.77;;
20397;SDS011;10358;49.590;11.030;2022-12-07T01:32:29;13.27;;;8.73;;
20397;SDS011;10358;49.590;11.030;2022-12-07T01:34:55;14.83;;;9.37;;
20397;SDS011;10358;49.590;11.030;2022-12-07T01:37:20;12.73;;;8.47;;
20397;SDS011;10358;49.590;11.030;2022-12-07T01:39:48;14.10;;;9.00;;
20397;SDS011;10358;49.590;11.030;2022-12-07T01:42:14;12.37;;;8.60;;
20397;SDS011;10358;49.590;11.030;2022-12-07T01:47:44;16.87;;;9.47;;
20397;SDS011;10358;49.590;11.030;2022-12-07T01:50:14;14.87;;;9.73;;
20397;SDS011;10358;49.590;11.030;2022-12-07T01:52:40;14.90;;;9.70;;
20397;SDS011;10358;49.590;11.030;2022-12-07T01:55:09;15.10;;;9.60;;
20397;SDS011;10358;49.590;11.030;2022-12-07T01:57:39;15.97;;;9.53;;
20397;SDS011;10358;49.590;11.030;2022-12-07T02:00:08;14.33;;;9.70;;
20397;SDS011;10358;49.590;11.030;2022-12-07T02:02:37;17.03;;;9.70;;
20397;SDS011;10358;49.590;11.030;2022-12-07T02:05:06;16.87;;;10.60;;
20397;SDS011;10358;49.590;11.030;2022-12-07T02:07:32;17.17;;;10.13;;
20397;SDS011;10358;49.590;11.030;2022-12-07T02:10:14;15.77;;;9.97;;
20397;SDS011;10358;49.590;11.030;2022-12-07T02:12:45;16.23;;;10.00;;
20397;SDS011;10358;49.590;11.030;2022-12-07T02:15:13;18.17;;;10.40;;
20397;SDS011;10358;49.590;11.030;2022-12-07T02:17:55;15.90;;;9.67;;
20397;SDS011;10358;49.590;11.030;2022-12-07T02:23:04;16.77;;;10.97;;
20397;SDS011;10358;49.590;11.030;2022-12-07T02:28:34;15.80;;;10.30;;
20397;SDS011;10358;49.590;11.030;2022-12-07T02:31:04;16.83;;;10.20;;
20397;SDS011;10358;49.590;11.030;2022-12-07T02:33:41;16.43;;;10.57;;
20397;SDS011;10358;49.590;11.030;2022-12-07T02:36:22;19.13;;;11.07;;
20397;SDS011;10358;49.590;11.030;2022-12-07T02:41:28;17.07;;;10.83;;
20397;SDS011;10358;49.590;11.030;2022-12-07T02:43:55;18.30;;;11.17;;
20397;SDS011;10358;49.590;11.030;2022-12-07T02:46:29;17.63;;;10.67;;
20397;SDS011;10358;49.590;11.030;2022-12-07T02:49:00;18.23;;;12.03;;
20397;SDS011;10358;49.590;11.030;2022-12-07T02:51:31;20.30;;;11.10;;
20397;SDS011;10358;49.590;11.030;2022-12-07T02:53:58;18.67;;;11.03;;
20397;SDS011;10358;49.590;11.030;2022-12-07T03:02:11;18.67;;;11.47;;
20397;SDS011;10358;49.590;11.030;2022-12-07T03:04:52;17.87;;;10.73;;
20397;SDS011;10358;49.590;11.030;2022-12-07T03:07:49;18.70;;;10.87;;
20397;SDS011;10358;49.590;11.030;2022-12-07T03:15:34;20.43;;;11.97;;
20397;SDS011;10358;49.590;11.030;2022-12-07T03:18:05;17.53;;;10.47;;
20397;SDS011;10358;49.590;11.030;2022-12-07T03:20:32;18.77;;;11.03;;
20397;SDS011;10358;49.590;11.030;2022-12-07T03:23:03;18.33;;;10.47;;
20397;SDS011;10358;49.590;11.030;2022-12-07T03:25:32;19.13;;;11.50;;
20397;SDS011;10358;49.590;11.030;2022-12-07T03:28:02;18.93;;;11.03;;
20397;SDS011;10358;49.590;11.030;2022-12-07T03:30:42;17.87;;;11.73;;
20397;SDS011;10358;49.590;11.030;2022-12-07T03:33:13;18.57;;;11.00;;
20397;SDS011;10358;49.590;11.030;2022-12-07T03:35:48;22.47;;;11.10;;
20397;SDS011;10358;49.590;11.030;2022-12-07T03:38:30;20.13;;;11.90;;
20397;SDS011;10358;49.590;11.030;2022-12-07T03:41:06;18.30;;;11.23;;
20397;SDS011;10358;49.590;11.030;2022-12-07T03:43:36;18.33;;;11.60;;
20397;SDS011;10358;49.590;11.030;2022-12-07T03:48:43;21.40;;;12.23;;
20397;SDS011;10358;49.590;11.030;2022-12-07T03:54:19;19.93;;;11.90;;
20397;SDS011;10358;49.590;11.030;2022-12-07T03:56:45;20.00;;;12.03;;
20397;SDS011;10358;49.590;11.030;2022-12-07T03:59:11;21.97;;;11.97;;
20397;SDS011;10358;49.590;11.030;2022-12-07T04:01:41;20.30;;;12.17;;
20397;SDS011;10358;49.590;11.030;2022-12-07T04:04:08;19.03;;;11.60;;
20397;SDS011;10358;49.590;11.030;2022-12-07T04:06:33;19.87;;;11.67;;
20397;SDS011;10358;49.590;11.030;2022-12-07T04:08:59;21.67;;;12.20;;
20397;SDS011;10358;49.590;11.030;2022-12-07T04:11:24;23.67;;;12.20;;
20397;SDS011;10358;49.590;11.030;2022-12-07T04:13:50;21.47;;;11.67;;
20397;SDS011;10358;49.590;11.030;2022-12-07T04:16:34;22.73;;;12.83;;
20397;SDS011;10358;49.590;11.030;2022-12-07T04:18:59;20.97;;;12.13;;
20397;SDS011;10358;49.590;11.030;2022-12-07T04:21:25;23.30;;;12.93;;
20397;SDS011;10358;49.590;11.030;2022-12-07T04:23:50;22.33;;;12.13;;
20397;SDS011;10358;49.590;11.030;2022-12-07T04:26:16;22.20;;;12.47;;
20397;SDS011;10358;49.590;11.030;2022-12-07T04:28:42;21.17;;;12.40;;
20397;SDS011;10358;49.590;11.030;2022-12-07T04:31:07;20.77;;;12.33;;
20397;SDS011;10358;49.590;11.030;2022-12-07T04:33:33;22.00;;;12.20;;
20397;SDS011;10358;49.590;11.030;2022-12-07T04:35:59;25.30;;;12.97;;
20397;SDS011;10358;49.590;11.030;2022-12-07T04:38:25;24.00;;;12.60;;
20397;SDS011;10358;49.590;11.030;2022-12-07T04:40:50;20.20;;;12.20;;
20397;SDS011;10358;49.590;11.030;2022-12-07T04:43:16;20.63;;;12.33;;
20397;SDS011;10358;49.590;11.030;2022-12-07T04:45:45;21.30;;;12.03;;
20397;SDS011;10358;49.590;11.030;2022-12-07T04:48:12;22.37;;;12.90;;
20397;SDS011;10358;49.590;11.030;2022-12-07T04:50:37;21.87;;;12.50;;
20397;SDS011;10358;49.590;11.030;2022-12-07T04:53:03;23.90;;;12.90;;
20397;SDS011;10358;49.590;11.030;2022-12-07T04:55:29;23.90;;;13.23;;
20397;SDS011;10358;49.590;11.030;2022-12-07T04:57:54;22.60;;;11.97;;
20397;SDS011;10358;49.590;11.030;2022-12-07T05:00:20;21.70;;;12.30;;
20397;SDS011;10358;49.590;11.030;2022-12-07T05:02:45;24.50;;;12.80;;
20397;SDS011;10358;49.590;11.030;2022-12-07T05:05:11;20.97;;;12.67;;
20397;SDS011;10358;49.590;11.030;2022-12-07T05:07:37;25.10;;;13.57;;
20397;SDS011;10358;49.590;11.030;2022-12-07T05:10:02;20.87;;;12.40;;
20397;SDS011;10358;49.590;11.030;2022-12-07T05:12:28;24.03;;;14.17;;
20397;SDS011;10358;49.590;11.030;2022-12-07T05:14:54;22.37;;;13.23;;
20397;SDS011;10358;49.590;11.030;2022-12-07T05:17:19;23.67;;;13.43;;
20397;SDS011;10358;49.590;11.030;2022-12-07T05:19:45;24.13;;;13.27;;
20397;SDS011;10358;49.590;11.030;2022-12-07T05:22:10;21.53;;;13.47;;
20397;SDS011;10358;49.590;11.030;2022-12-07T05:24:36;23.57;;;13.47;;
20397;SDS011;10358;49.590;11.030;2022-12-07T05:27:01;24.40;;;13.07;;
20397;SDS011;10358;49.590;11.030;2022-12-07T05:29:27;25.00;;;13.63;;
20397;SDS011;10358;49.590;11.030;2022-12-07T05:31:52;24.93;;;13.67;;
20397;SDS011;10358;49.590;11.030;2022-12-07T05:34:18;24.07;;;13.43;;
20397;SDS011;10358;49.590;11.030;2022-12-07T05:36:43;24.70;;;13.63;;
20397;SDS011;10358;49.590;11.030;2022-12-07T05:39:09;24.20;;;13.20;;
20397;SDS011;10358;49.590;11.030;2022-12-07T05:41:35;23.90;;;13.50;;
20397;SDS011;10358;49.590;11.030;2022-12-07T05:44:19;26.33;;;13.47;;
20397;SDS011;10358;49.590;11.030;2022-12-07T05:46:45;23.87;;;14.10;;
20397;SDS011;10358;49.590;11.030;2022-12-07T05:49:10;26.13;;;13.80;;
20397;SDS011;10358;49.590;11.030;2022-12-07T05:51:36;28.53;;;13.90;;
20397;SDS011;10358;49.590;11.030;2022-12-07T05:54:02;25.50;;;13.90;;
20397;SDS011;10358;49.590;11.030;2022-12-07T05:56:27;26.10;;;14.10;;
20397;SDS011;10358;49.590;11.030;2022-12-07T05:58:53;26.20;;;14.67;;
20397;SDS011;10358;49.590;11.030;2022-12-07T06:01:37;26.40;;;13.33;;
20397;SDS011;10358;49.590;11.030;2022-12-07T06:04:03;25.27;;;14.03;;
20397;SDS011;10358;49.590;11.030;2022-12-07T06:06:29;25.37;;;13.53;;
20397;SDS011;10358;49.590;11.030;2022-12-07T06:08:54;25.53;;;13.90;;
20397;SDS011;10358;49.590;11.030;2022-12-07T06:11:20;24.57;;;12.90;;
20397;SDS011;10358;49.590;11.030;2022-12-07T06:14:04;29.37;;;14.67;;
20397;SDS011;10358;49.590;11.030;2022-12-07T06:16:29;24.97;;;13.50;;
20397;SDS011;10358;49.590;11.030;2022-12-07T06:18:55;24.33;;;13.77;;
20397;SDS011;10358;49.590;11.030;2022-12-07T06:21:20;23.87;;;12.93;;
20397;SDS011;10358;49.590;11.030;2022-12-07T06:23:46;23.43;;;12.63;;
20397;SDS011;10358;49.590;11.030;2022-12-07T06:26:12;22.37;;;12.70;;
20397;SDS011;10358;49.590;11.030;2022-12-07T06:28:38;24.77;;;13.80;;
20397;SDS011;10358;49.590;11.030;2022-12-07T06:31:04;25.40;;;13.60;;
20397;SDS011;10358;49.590;11.030;2022-12-07T06:33:29;23.57;;;13.57;;
20397;SDS011;10358;49.590;11.030;2022-12-07T06:35:55;23.00;;;12.90;;
20397;SDS011;10358;49.590;11.030;2022-12-07T06:38:21;26.37;;;14.00;;
20397;SDS011;10358;49.590;11.030;2022-12-07T06:40:46;25.00;;;13.50;;
20397;SDS011;10358;49.590;11.030;2022-12-07T06:43:13;25.80;;;13.97;;
20397;SDS011;10358;49.590;11.030;2022-12-07T06:45:38;25.20;;;13.03;;
20397;SDS011;10358;49.590;11.030;2022-12-07T06:48:05;23.87;;;13.20;;
20397;SDS011;10358;49.590;11.030;2022-12-07T06:50:30;25.23;;;13.63;;
20397;SDS011;10358;49.590;11.030;2022-12-07T06:52:56;24.67;;;13.13;;
20397;SDS011;10358;49.590;11.030;2022-12-07T06:55:21;22.50;;;12.57;;
20397;SDS011;10358;49.590;11.030;2022-12-07T06:57:47;25.83;;;13.30;;
20397;SDS011;10358;49.590;11.030;2022-12-07T07:00:13;25.03;;;13.17;;
20397;SDS011;10358;49.590;11.030;2022-12-07T07:02:38;23.87;;;12.53;;
20397;SDS011;10358;49.590;11.030;2022-12-07T07:05:04;25.33;;;13.43;;
20397;SDS011;10358;49.590;11.030;2022-12-07T07:07:30;24.63;;;12.80;;
20397;SDS011;10358;49.590;11.030;2022-12-07T07:09:55;25.73;;;12.73;;
20397;SDS011;10358;49.590;11.030;2022-12-07T07:12:21;23.87;;;12.93;;
20397;SDS011;10358;49.590;11.030;2022-12-07T07:14:46;23.77;;;13.07;;
20397;SDS011;10358;49.590;11.030;2022-12-07T07:17:12;23.73;;;12.50;;
20397;SDS011;10358;49.590;11.030;2022-12-07T07:19:38;22.57;;;12.60;;
20397;SDS011;10358;49.590;11.030;2022-12-07T07:22:03;22.00;;;11.70;;
20397;SDS011;10358;49.590;11.030;2022-12-07T07:24:29;22.60;;;12.70;;
20397;SDS011;10358;49.590;11.030;2022-12-07T07:26:54;28.33;;;12.60;;
20397;SDS011;10358;49.590;11.030;2022-12-07T07:29:20;23.97;;;12.93;;
20397;SDS011;10358;49.590;11.030;2022-12-07T07:31:46;24.07;;;12.37;;
20397;SDS011;10358;49.590;11.030;2022-12-07T07:34:11;23.40;;;12.60;;
20397;SDS011;10358;49.590;11.030;2022-12-07T07:36:37;23.53;;;12.60;;
20397;SDS011;10358;49.590;11.030;2022-12-07T07:39:20;22.47;;;12.30;;
20397;SDS011;10358;49.590;11.030;2022-12-07T07:41:46;24.17;;;13.17;;
20397;SDS011;10358;49.590;11.030;2022-12-07T07:44:12;24.10;;;13.40;;
20397;SDS011;10358;49.590;11.030;2022-12-07T07:46:37;23.70;;;13.60;;
20397;SDS011;10358;49.590;11.030;2022-12-07T07:49:03;26.70;;;13.63;;
20397;SDS011;10358;49.590;11.030;2022-12-07T07:51:28;25.17;;;13.83;;
20397;SDS011;10358;49.590;11.030;2022-12-07T07:53:54;24.10;;;12.70;;
20397;SDS011;10358;49.590;11.030;2022-12-07T07:56:19;25.87;;;14.33;;
20397;SDS011;10358;49.590;11.030;2022-12-07T07:58:45;26.87;;;14.93;;
20397;SDS011;10358;49.590;11.030;2022-12-07T08:01:11;25.63;;;14.27;;
20397;SDS011;10358;49.590;11.030;2022-12-07T08:03:38;25.87;;;14.27;;
20397;SDS011;10358;49.590;11.030;2022-12-07T08:06:04;25.10;;;12.17;;
20397;SDS011;10358;49.590;11.030;2022-12-07T08:08:30;28.80;;;15.03;;
20397;SDS011;10358;49.590;11.030;2022-12-07T08:10:55;29.73;;;15.53;;
20397;SDS011;10358;49.590;11.030;2022-12-07T08:13:21;29.83;;;15.63;;
20397;SDS011;10358;49.590;11.030;2022-12-07T08:15:47;27.20;;;14.33;;
20397;SDS011;10358;49.590;11.030;2022-12-07T08:18:13;28.27;;;13.90;;
20397;SDS011;10358;49.590;11.030;2022-12-07T08:20:40;28.73;;;14.37;;
20397;SDS011;10358;49.590;11.030;2022-12-07T08:23:06;23.97;;;13.87;;
20397;SDS011;10358;49.590;11.030;2022-12-07T08:25:33;27.63;;;14.00;;
20397;SDS011;10358;49.590;11.030;2022-12-07T08:27:59;22.47;;;13.20;;
20397;SDS011;10358;49.590;11.030;2022-12-07T08:30:26;25.13;;;13.57;;
20397;SDS011;10358;49.590;11.030;2022-12-07T08:32:52;27.50;;;13.23;;
20397;SDS011;10358;49.590;11.030;2022-12-07T08:35:18;32.07;;;13.07;;
20397;SDS011;10358;49.590;11.030;2022-12-07T08:37:43;21.50;;;12.17;;
20397;SDS011;10358;49.590;11.030;2022-12-07T08:40:09;22.20;;;12.47;;
20397;SDS011;10358;49.590;11.030;2022-12-07T08:42:40;25.63;;;12.73;;
20397;SDS011;10358;49.590;11.030;2022-12-07T08:45:10;23.00;;;11.43;;
20397;SDS011;10358;49.590;11.030;2022-12-07T08:47:39;22.47;;;11.57;;
20397;SDS011;10358;49.590;11.030;2022-12-07T08:50:09;22.93;;;12.17;;
20397;SDS011;10358;49.590;11.030;2022-12-07T08:52:36;22.97;;;12.17;;
20397;SDS011;10358;49.590;11.030;2022-12-07T08:55:02;22.07;;;11.87;;
20397;SDS011;10358;49.590;11.030;2022-12-07T08:57:29;25.17;;;12.40;;
20397;SDS011;10358;49.590;11.030;2022-12-07T08:59:57;22.40;;;12.47;;
20397;SDS011;10358;49.590;11.030;2022-12-07T09:02:23;23.83;;;11.63;;
20397;SDS011;10358;49.590;11.030;2022-12-07T09:04:49;18.93;;;10.63;;
20397;SDS011;10358;49.590;11.030;2022-12-07T09:07:14;18.60;;;10.27;;
20397;SDS011;10358;49.590;11.030;2022-12-07T09:09:40;18.97;;;10.40;;
20397;SDS011;10358;49.590;11.030;2022-12-07T09:12:06;18.30;;;10.67;;
20397;SDS011;10358;49.590;11.030;2022-12-07T09:14:32;22.07;;;11.10;;
20397;SDS011;10358;49.590;11.030;2022-12-07T09:17:05;17.10;;;10.37;;
20397;SDS011;10358;49.590;11.030;2022-12-07T09:19:32;21.23;;;10.67;;
20397;SDS011;10358;49.590;11.030;2022-12-07T09:21:57;18.57;;;10.23;;
20397;SDS011;10358;49.590;11.030;2022-12-07T09:24:23;19.43;;;10.73;;
20397;SDS011;10358;49.590;11.030;2022-12-07T09:26:48;22.47;;;10.97;;
20397;SDS011;10358;49.590;11.030;2022-12-07T09:29:14;19.50;;;10.57;;
20397;SDS011;10358;49.590;11.030;2022-12-07T09:31:40;20.80;;;11.03;;
20397;SDS011;10358;49.590;11.030;2022-12-07T09:34:06;20.17;;;11.23;;
20397;SDS011;10358;49.590;11.030;2022-12-07T09:36:32;22.03;;;11.17;;
20397;SDS011;10358;49.590;11.030;2022-12-07T09:38:58;19.97;;;10.93;;
20397;SDS011;10358;49.590;11.030;2022-12-07T09:41:24;21.40;;;11.43;;
20397;SDS011;10358;49.590;11.030;2022-12-07T09:43:52;20.53;;;10.50;;
20397;SDS011;10358;49.590;11.030;2022-12-07T09:46:20;21.73;;;11.90;;
20397;SDS011;10358;49.590;11.030;2022-12-07T09:48:47;21.20;;;11.50;;
20397;SDS011;10358;49.590;11.030;2022-12-07T09:51:16;23.77;;;11.63;;
20397;SDS011;10358;49.590;11.030;2022-12-07T09:53:49;21.23;;;11.30;;
20397;SDS011;10358;49.590;11.030;2022-12-07T09:56:17;20.47;;;11.63;;
20397;SDS011;10358;49.590;11.030;2022-12-07T09:58:45;21.87;;;12.23;;
20397;SDS011;10358;49.590;11.030;2022-12-07T10:04:26;21.90;;;11.60;;
20397;SDS011;10358;49.590;11.030;2022-12-07T10:06:40;20.87;;;11.47;;
20397;SDS011;10358;49.590;11.030;2022-12-07T10:09:12;21.17;;;11.60;;
20397;SDS011;10358;49.590;11.030;2022-12-07T10:14:28;21.53;;;11.53;;
20397;SDS011;10358;49.590;11.030;2022-12-07T10:16:55;23.13;;;12.23;;
20397;SDS011;10358;49.590;11.030;2022-12-07T10:19:31;21.43;;;12.10;;
20397;SDS011;10358;49.590;11.030;2022-12-07T10:24:40;18.63;;;11.20;;
20397;SDS011;10358;49.590;11.030;2022-12-07T10:27:17;22.00;;;11.70;;
20397;SDS011;10358;49.590;11.030;2022-12-07T10:29:51;20.67;;;11.60;;
20397;SDS011;10358;49.590;11.030;2022-12-07T10:34:43;21.10;;;12.13;;
20397;SDS011;10358;49.590;11.030;2022-12-07T10:39:40;19.57;;;11.97;;
20397;SDS011;10358;49.590;11.030;2022-12-07T10:42:08;20.17;;;12.00;;
20397;SDS011;10358;49.590;11.030;2022-12-07T10:44:40;21.23;;;12.37;;
20397;SDS011;10358;49.590;11.030;2022-12-07T10:50:17;20.67;;;11.50;;
20397;SDS011;10358;49.590;11.030;2022-12-07T10:53:24;19.23;;;11.37;;
20397;SDS011;10358;49.590;11.030;2022-12-07T10:56:21;20.53;;;11.73;;
20397;SDS011;10358;49.590;11.030;2022-12-07T10:59:04;22.00;;;12.43;;
20397;SDS011;10358;49.590;11.030;2022-12-07T11:01:43;19.80;;;12.00;;
20397;SDS011;10358;49.590;11.030;2022-12-07T11:12:13;19.10;;;12.00;;
20397;SDS011;10358;49.590;11.030;2022-12-07T11:15:00;20.87;;;11.30;;
20397;SDS011;10358;49.590;11.030;2022-12-07T11:17:45;23.50;;;12.27;;
20397;SDS011;10358;49.590;11.030;2022-12-07T11:20:37;22.33;;;12.57;;
20397;SDS011;10358;49.590;11.030;2022-12-07T11:23:18;24.33;;;12.30;;
20397;SDS011;10358;49.590;11.030;2022-12-07T11:26:11;22.73;;;12.47;;
20397;SDS011;10358;49.590;11.030;2022-12-07T11:31:51;20.43;;;12.47;;
20397;SDS011;10358;49.590;11.030;2022-12-07T11:34:37;24.40;;;12.87;;
20397;SDS011;10358;49.590;11.030;2022-12-07T11:37:18;22.73;;;12.40;;
20397;SDS011;10358;49.590;11.030;2022-12-07T11:39:50;19.83;;;11.73;;
20397;SDS011;10358;49.590;11.030;2022-12-07T11:47:25;21.07;;;11.53;;
20397;SDS011;10358;49.590;11.030;2022-12-07T12:01:11;21.03;;;11.37;;
20397;SDS011;10358;49.590;11.030;2022-12-07T12:03:43;18.53;;;11.00;;
20397;SDS011;10358;49.590;11.030;2022-12-07T12:06:23;20.23;;;12.13;;
20397;SDS011;10358;49.590;11.030;2022-12-07T12:08:50;20.63;;;11.53;;
20397;SDS011;10358;49.590;11.030;2022-12-07T12:25:39;21.67;;;11.80;;
20397;SDS011;10358;49.590;11.030;2022-12-07T12:28:19;19.80;;;10.90;;
20397;SDS011;10358;49.590;11.030;2022-12-07T12:31:03;19.77;;;11.20;;
20397;SDS011;10358;49.590;11.030;2022-12-07T12:33:34;18.30;;;11.23;;
20397;SDS011;10358;49.590;11.030;2022-12-07T12:36:16;21.50;;;11.37;;
20397;SDS011;10358;49.590;11.030;2022-12-07T12:38:47;17.43;;;11.17;;
20397;SDS011;10358;49.590;11.030;2022-12-07T12:44:02;18.87;;;11.13;;
20397;SDS011;10358;49.590;11.030;2022-12-07T13:02:20;18.80;;;11.37;;
20397;SDS011;10358;49.590;11.030;2022-12-07T13:05:14;17.93;;;11.47;;
20397;SDS011;10358;49.590;11.030;2022-12-07T13:07:55;19.17;;;11.33;;
20397;SDS011;10358;49.590;11.030;2022-12-07T13:18:22;18.17;;;10.27;;
20397;SDS011;10358;49.590;11.030;2022-12-07T13:20:51;19.33;;;11.00;;
20397;SDS011;10358;49.590;11.030;2022-12-07T13:23:33;16.70;;;10.33;;
20397;SDS011;10358;49.590;11.030;2022-12-07T13:26:20;19.47;;;10.83;;
20397;SDS011;10358;49.590;11.030;2022-12-07T13:31:42;18.10;;;10.13;;
20397;SDS011;10358;49.590;11.030;2022-12-07T13:34:28;18.43;;;10.50;;
20397;SDS011;10358;49.590;11.030;2022-12-07T13:37:00;19.47;;;10.47;;
20397;SDS011;10358;49.590;11.030;2022-12-07T13:39:45;16.63;;;9.83;;
20397;SDS011;10358;49.590;11.030;2022-12-07T13:42:25;16.40;;;9.90;;
20397;SDS011;10358;49.590;11.030;2022-12-07T13:45:00;18.10;;;10.07;;
20397;SDS011;10358;49.590;11.030;2022-12-07T13:47:43;17.50;;;10.13;;
20397;SDS011;10358;49.590;11.030;2022-12-07T13:50:22;16.77;;;10.43;;
20397;SDS011;10358;49.590;11.030;2022-12-07T13:52:49;15.83;;;9.80;;
20397;SDS011;10358;49.590;11.030;2022-12-07T13:55:15;18.27;;;9.57;;
20397;SDS011;10358;49.590;11.030;2022-12-07T13:57:42;15.93;;;9.80;;
20397;SDS011;10358;49.590;11.030;2022-12-07T14:00:20;21.10;;;9.57;;
20397;SDS011;10358;49.590;11.030;2022-12-07T14:05:25;18.47;;;9.23;;
20397;SDS011;10358;49.590;11.030;2022-12-07T14:07:56;19.47;;;10.30;;
20397;SDS011;10358;49.590;11.030;2022-12-07T14:16:22;15.00;;;8.97;;
20397;SDS011;10358;49.590;11.030;2022-12-07T14:18:49;15.10;;;9.20;;
20397;SDS011;10358;49.590;11.030;2022-12-07T14:21:17;14.60;;;8.93;;
20397;SDS011;10358;49.590;11.030;2022-12-07T14:24:17;14.10;;;8.47;;
20397;SDS011;10358;49.590;11.030;2022-12-07T14:26:48;17.30;;;8.90;;
20397;SDS011;10358;49.590;11.030;2022-12-07T14:29:22;16.13;;;8.87;;
20397;SDS011;10358;49.590;11.030;2022-12-07T14:31:51;14.13;;;9.63;;
20397;SDS011;10358;49.590;11.030;2022-12-07T14:34:21;17.30;;;9.27;;
20397;SDS011;10358;49.590;11.030;2022-12-07T14:36:48;16.67;;;9.17;;
20397;SDS011;10358;49.590;11.030;2022-12-07T14:39:14;16.03;;;8.93;;
20397;SDS011;10358;49.590;11.030;2022-12-07T14:41:40;17.93;;;9.10;;
20397;SDS011;10358;49.590;11.030;2022-12-07T14:44:18;13.57;;;8.93;;
20397;SDS011;10358;49.590;11.030;2022-12-07T14:46:46;15.00;;;8.80;;
20397;SDS011;10358;49.590;11.030;2022-12-07T14:49:13;13.90;;;8.70;;
20397;SDS011;10358;49.590;11.030;2022-12-07T14:51:39;16.77;;;8.30;;
20397;SDS011;10358;49.590;11.030;2022-12-07T14:54:06;14.23;;;8.27;;
20397;SDS011;10358;49.590;11.030;2022-12-07T14:56:40;12.00;;;7.23;;
20397;SDS011;10358;49.590;11.030;2022-12-07T14:59:07;11.93;;;7.67;;
20397;SDS011;10358;49.590;11.030;2022-12-07T15:01:32;12.37;;;7.60;;
20397;SDS011;10358;49.590;11.030;2022-12-07T15:03:58;10.30;;;6.97;;
20397;SDS011;10358;49.590;11.030;2022-12-07T15:06:23;12.20;;;6.60;;
20397;SDS011;10358;49.590;11.030;2022-12-07T15:08:49;11.30;;;6.90;;
20397;SDS011;10358;49.590;11.030;2022-12-07T15:11:15;11.90;;;7.37;;
20397;SDS011;10358;49.590;11.030;2022-12-07T15:13:42;10.83;;;6.53;;
20397;SDS011;10358;49.590;11.030;2022-12-07T15:16:26;13.23;;;6.63;;
20397;SDS011;10358;49.590;11.030;2022-12-07T15:18:51;10.27;;;6.33;;
20397;SDS011;10358;49.590;11.030;2022-12-07T15:21:17;9.20;;;5.97;;
20397;SDS011;10358;49.590;11.030;2022-12-07T15:23:43;10.50;;;6.57;;
20397;SDS011;10358;49.590;11.030;2022-12-07T15:26:11;12.60;;;7.17;;
20397;SDS011;10358;49.590;11.030;2022-12-07T15:28:37;14.83;;;6.97;;
20397;SDS011;10358;49.590;11.030;2022-12-07T15:31:02;14.57;;;7.97;;
20397;SDS011;10358;49.590;11.030;2022-12-07T15:33:28;19.03;;;9.83;;
20397;SDS011;10358;49.590;11.030;2022-12-07T15:35:53;20.30;;;12.27;;
20397;SDS011;10358;49.590;11.030;2022-12-07T15:38:19;24.37;;;13.10;;
20397;SDS011;10358;49.590;11.030;2022-12-07T15:40:48;14.87;;;9.10;;
20397;SDS011;10358;49.590;11.030;2022-12-07T15:43:13;19.47;;;8.80;;
20397;SDS011;10358;49.590;11.030;2022-12-07T15:45:57;17.53;;;9.80;;
20397;SDS011;10358;49.590;11.030;2022-12-07T15:48:24;17.07;;;10.10;;
20397;SDS011;10358;49.590;11.030;2022-12-07T15:50:49;17.70;;;9.70;;
20397;SDS011;10358;49.590;11.030;2022-12-07T15:53:15;16.57;;;9.50;;
20397;SDS011;10358;49.590;11.030;2022-12-07T15:55:41;18.13;;;9.70;;
20397;SDS011;10358;49.590;11.030;2022-12-07T15:58:06;17.97;;;10.57;;
20397;SDS011;10358;49.590;11.030;2022-12-07T16:00:32;16.70;;;9.83;;
20397;SDS011;10358;49.590;11.030;2022-12-07T16:02:58;20.33;;;10.10;;
20397;SDS011;10358;49.590;11.030;2022-12-07T16:05:23;18.03;;;10.47;;
20397;SDS011;10358;49.590;11.030;2022-12-07T16:07:49;17.73;;;9.80;;
20397;SDS011;10358;49.590;11.030;2022-12-07T16:10:16;19.50;;;9.93;;
20397;SDS011;10358;49.590;11.030;2022-12-07T16:12:41;18.07;;;10.07;;
20397;SDS011;10358;49.590;11.030;2022-12-07T16:15:07;19.43;;;10.50;;
20397;SDS011;10358;49.590;11.030;2022-12-07T16:17:33;19.53;;;10.67;;
20397;SDS011;10358;49.590;11.030;2022-12-07T16:19:59;22.03;;;11.20;;
20397;SDS011;10358;49.590;11.030;2022-12-07T16:22:24;21.30;;;11.37;;
20397;SDS011;10358;49.590;11.030;2022-12-07T16:24:50;20.87;;;11.20;;
20397;SDS011;10358;49.590;11.030;2022-12-07T16:27:15;21.43;;;11.80;;
20397;SDS011;10358;49.590;11.030;2022-12-07T16:29:41;20.90;;;12.00;;